Time;durP1;ratioP1;P1;durP2;ratioP2;P2;SDS_P1;SDS_P2;PMS_P1;PMS_P2;Temp;Humidity;BMP_temperature;BMP_pressure;BME280_temperature;BME280_humidity;BME280_pressure;Samples;Min_cycle;Max_cycle;Signal;HPM_P1;HPM_P2
2022/10/14 00:00:25;;;;;;;18.65;12.90;;;;;;;10.81;100.00;101426.97;1025327;28;20843;-91
2022/10/14 00:01:01;;;;;;;17.40;12.20;;;;;;;10.82;100.00;101433.13;1026991;28;20357;-90
2022/10/14 00:01:33;;;;;;;17.27;11.80;;;;;;;10.80;100.00;101432.53;1028679;28;20309;-89
2022/10/14 00:02:05;;;;;;;15.35;12.25;;;;;;;10.77;100.00;101425.75;1028833;28;20298;-89
2022/10/14 00:02:38;;;;;;;18.05;12.73;;;;;;;10.80;100.00;101429.84;1025271;28;20309;-90
2022/10/14 00:03:09;;;;;;;17.40;12.30;;;;;;;10.73;100.00;101418.38;1029641;28;20799;-90
2022/10/14 00:03:42;;;;;;;22.13;12.93;;;;;;;10.72;100.00;101422.88;1022523;29;20343;-90
2022/10/14 00:04:13;;;;;;;15.88;11.73;;;;;;;10.76;100.00;101424.13;1026923;28;20728;-90
2022/10/14 00:04:45;;;;;;;20.17;13.75;;;;;;;10.75;100.00;101427.81;1023438;28;20405;-90
2022/10/14 00:05:17;;;;;;;18.25;12.85;;;;;;;10.71;100.00;101423.91;1026436;28;20298;-90
2022/10/14 00:05:48;;;;;;;18.60;13.27;;;;;;;10.69;100.00;101420.63;1024628;28;21114;-89
2022/10/14 00:06:23;;;;;;;23.50;13.63;;;;;;;10.70;100.00;101424.94;1017210;29;20340;-89
2022/10/14 00:06:55;;;;;;;20.30;13.68;;;;;;;10.66;100.00;101421.00;1023039;28;20310;-90
2022/10/14 00:07:26;;;;;;;18.23;13.07;;;;;;;10.65;100.00;101416.69;1019029;29;20319;-91
2022/10/14 00:07:58;;;;;;;22.38;12.40;;;;;;;10.60;100.00;101413.81;1015252;29;20364;-91
2022/10/14 00:08:29;;;;;;;18.50;13.23;;;;;;;10.62;100.00;101421.63;1025731;28;20368;-90
2022/10/14 00:09:05;;;;;;;18.92;14.13;;;;;;;10.61;100.00;101415.47;1019888;29;20350;-90
2022/10/14 00:09:38;;;;;;;15.77;13.23;;;;;;;10.62;100.00;101421.63;1026802;28;20310;-90
2022/10/14 00:10:10;;;;;;;17.73;12.63;;;;;;;10.67;100.00;101416.50;1025472;28;20294;-90
2022/10/14 00:10:41;;;;;;;18.20;13.52;;;;;;;10.63;100.00;101421.41;1030608;28;20381;-90
2022/10/14 00:11:18;;;;;;;17.23;12.95;;;;;;;10.58;100.00;101415.88;1031028;28;20313;-91
2022/10/14 00:11:50;;;;;;;20.33;13.07;;;;;;;10.58;100.00;101423.88;1021756;29;20360;-91
2022/10/14 00:12:22;;;;;;;20.25;14.10;;;;;;;10.57;100.00;101422.22;1019654;29;20307;-90
2022/10/14 00:12:53;;;;;;;21.00;14.23;;;;;;;10.59;100.00;101422.03;1027179;28;20303;-90
2022/10/14 00:13:25;;;;;;;18.02;13.27;;;;;;;10.59;100.00;101417.50;1024365;28;20299;-90
2022/10/14 00:14:00;;;;;;;21.02;13.82;;;;;;;10.56;100.00;101411.78;1027423;28;20341;-90
2022/10/14 00:14:32;;;;;;;18.20;13.15;;;;;;;10.57;100.00;101414.22;1023343;28;20899;-89
2022/10/14 00:15:04;;;;;;;19.85;13.98;;;;;;;10.50;100.00;101416.88;1029428;28;20671;-90
2022/10/14 00:15:39;;;;;;;20.23;14.40;;;;;;;10.52;100.00;101414.03;1028537;28;20736;-90
2022/10/14 00:16:19;;;;;;;18.27;13.20;;;;;;;10.51;100.00;101417.72;1023233;28;20310;-90
2022/10/14 00:16:52;;;;;;;20.27;13.75;;;;;;;10.48;100.00;101416.28;1025928;28;20640;-90
2022/10/14 00:17:24;;;;;;;19.55;13.07;;;;;;;10.45;100.00;101411.34;1025031;28;20323;-90
2022/10/14 00:17:56;;;;;;;20.90;13.10;;;;;;;10.44;100.00;101408.88;1024989;28;20345;-90
2022/10/14 00:18:28;;;;;;;25.10;14.23;;;;;;;10.43;100.00;101412.56;1025473;28;20318;-90
2022/10/14 00:19:00;;;;;;;22.20;13.05;;;;;;;10.42;100.00;101405.59;1027251;28;20704;-90
2022/10/14 00:19:31;;;;;;;15.52;12.60;;;;;;;10.41;100.00;101414.63;1023477;29;20330;-90
2022/10/14 00:20:03;;;;;;;20.80;13.60;;;;;;;10.42;100.00;101405.59;1024672;28;20738;-89
2022/10/14 00:20:37;;;;;;;17.88;13.55;;;;;;;10.41;100.00;101411.97;1028330;28;20333;-90
2022/10/14 00:21:08;;;;;;;18.90;13.07;;;;;;;10.36;100.00;101412.53;1025571;28;20729;-90
2022/10/14 00:21:43;;;;;;;17.73;13.38;;;;;;;10.35;100.00;101402.09;1027444;28;20309;-89
2022/10/14 00:22:15;;;;;;;19.20;13.18;;;;;;;10.35;100.00;101399.44;1023370;28;20314;-90
2022/10/14 00:22:47;;;;;;;15.07;12.40;;;;;;;10.37;100.00;101402.69;1025619;28;20335;-90
2022/10/14 00:23:18;;;;;;;18.45;12.60;;;;;;;10.36;100.00;101401.88;1030110;28;20318;-90
2022/10/14 00:23:50;;;;;;;21.08;13.27;;;;;;;10.29;100.00;101405.56;1026759;28;20691;-90
2022/10/14 00:24:21;;;;;;;21.20;13.95;;;;;;;10.28;100.00;101403.91;1027250;28;20490;-90
2022/10/14 00:24:53;;;;;;;17.65;13.50;;;;;;;10.29;100.00;101400.22;1027442;28;20738;-89
2022/10/14 00:25:25;;;;;;;19.15;12.65;;;;;;;10.27;100.00;101403.09;1030953;28;20815;-90
2022/10/14 00:25:56;;;;;;;18.65;12.95;;;;;;;10.30;100.00;101401.88;1025819;28;20781;-90
2022/10/14 00:26:36;;;;;;;16.70;12.15;;;;;;;10.30;100.00;101401.88;1028821;28;20830;-90
2022/10/14 00:27:08;;;;;;;20.40;14.63;;;;;;;10.33;100.00;101406.78;1033762;28;20328;-90
2022/10/14 00:27:39;;;;;;;16.92;12.95;;;;;;;10.34;100.00;101397.78;1029387;28;20776;-91
2022/10/14 00:28:15;;;;;;;20.52;14.32;;;;;;;10.36;100.00;101401.06;1023368;28;20314;-91
2022/10/14 00:28:47;;;;;;;19.00;13.85;;;;;;;10.38;100.00;101407.00;1023871;28;20343;-90
2022/10/14 00:29:19;;;;;;;17.95;12.43;;;;;;;10.37;100.00;101402.69;1028678;28;20846;-90
2022/10/14 00:29:50;;;;;;;17.80;12.48;;;;;;;10.38;100.00;101394.50;1033256;28;20392;-91
2022/10/14 00:30:22;;;;;;;19.98;14.25;;;;;;;10.37;100.00;101408.03;1032850;28;20435;-90
2022/10/14 00:31:00;;;;;;;23.90;13.57;;;;;;;10.36;100.00;101403.72;1024516;28;20306;-91
2022/10/14 00:31:32;;;;;;;22.23;13.45;;;;;;;10.38;100.00;101401.69;1031348;28;20344;-91
2022/10/14 00:32:04;;;;;;;20.23;15.25;;;;;;;10.39;100.00;101400.66;1027342;28;20306;-90
2022/10/14 00:32:35;;;;;;;21.25;14.75;;;;;;;10.38;100.00;101407.00;1026913;28;20302;-91
2022/10/14 00:33:07;;;;;;;21.40;14.18;;;;;;;10.36;100.00;101407.22;1034841;28;20304;-93
2022/10/14 00:33:38;;;;;;;20.52;14.77;;;;;;;10.37;100.00;101402.69;1021410;28;20310;-93
2022/10/14 00:34:11;;;;;;;24.50;15.30;;;;;;;10.37;100.00;101405.38;1027062;28;20313;-90
2022/10/14 00:34:43;;;;;;;20.20;14.10;;;;;;;10.41;100.00;101403.97;1026555;28;20310;-90
2022/10/14 00:35:15;;;;;;;21.88;15.27;;;;;;;10.40;100.00;101407.63;1028788;28;20313;-90
2022/10/14 00:35:57;;;;;;;22.42;14.82;;;;;;;10.38;100.00;101404.34;1022979;28;20318;-90
2022/10/14 00:36:34;;;;;;;27.55;15.60;;;;;;;10.35;100.00;101408.22;1024487;28;20303;-92
2022/10/14 00:37:05;;;;;;;21.75;13.82;;;;;;;10.39;100.00;101400.66;1027398;28;20309;-90
2022/10/14 00:37:37;;;;;;;21.10;14.52;;;;;;;10.40;100.00;101408.44;1029481;28;20345;-89
2022/10/14 00:38:09;;;;;;;22.27;14.93;;;;;;;10.44;100.00;101407.03;1026583;28;20317;-90
2022/10/14 00:38:40;;;;;;;21.20;14.73;;;;;;;10.43;100.00;101404.59;1027295;28;20302;-90
2022/10/14 00:39:12;;;;;;;25.42;15.43;;;;;;;10.40;100.00;101407.63;1023149;28;20334;-90
2022/10/14 00:39:44;;;;;;;23.02;15.23;;;;;;;10.41;100.00;101403.97;1030572;28;20305;-90
2022/10/14 00:40:16;;;;;;;25.63;13.95;;;;;;;10.38;100.00;101405.16;1025407;28;20314;-90
2022/10/14 00:40:49;;;;;;;26.55;15.20;;;;;;;10.40;100.00;101408.44;1025415;28;20333;-90
2022/10/14 00:41:29;;;;;;;26.55;17.75;;;;;;;10.33;100.00;101401.47;1028500;28;20310;-90
2022/10/14 00:42:01;;;;;;;23.75;15.50;;;;;;;10.30;100.00;101405.34;1029873;28;20680;-90
2022/10/14 00:42:33;;;;;;;27.25;15.63;;;;;;;10.34;100.00;101411.09;1030503;28;20053;-90
2022/10/14 00:43:09;;;;;;;22.63;15.23;;;;;;;10.33;100.00;101406.78;1024508;28;20392;-89
2022/10/14 00:43:56;;;;;;;27.52;16.85;;;;;;;10.38;100.00;101404.34;1029057;28;20298;-91
2022/10/14 00:44:27;;;;;;;27.60;17.10;;;;;;;10.43;100.00;101410.72;1025684;28;20380;-93
2022/10/14 00:45:04;;;;;;;23.95;15.90;;;;;;;10.42;100.00;101410.94;1019686;29;20644;-90
2022/10/14 00:45:39;;;;;;;19.02;14.48;;;;;;;10.42;100.00;101400.28;1022953;28;20383;-90
2022/10/14 00:46:10;;;;;;;27.38;16.02;;;;;;;10.44;100.00;101408.88;1021731;29;20322;-90
2022/10/14 00:46:44;;;;;;;21.77;15.13;;;;;;;10.46;100.00;101412.16;1026768;28;20705;-90
2022/10/14 00:47:18;;;;;;;27.90;15.90;;;;;;;10.52;100.00;101406.03;1031152;28;20305;-90
2022/10/14 00:47:51;;;;;;;24.20;15.05;;;;;;;10.52;100.00;101406.03;1031013;28;20301;-90
2022/10/14 00:48:25;;;;;;;24.25;15.35;;;;;;;10.50;100.00;101408.06;1031519;28;20320;-91
2022/10/14 00:49:03;;;;;;;23.67;14.85;;;;;;;10.59;100.00;101406.03;1029462;28;20297;-91
2022/10/14 00:49:40;;;;;;;21.67;14.90;;;;;;;10.61;100.00;101407.47;1030617;28;20404;-90
2022/10/14 00:50:13;;;;;;;23.92;14.93;;;;;;;10.66;100.00;101413.00;1025446;28;20815;-90
2022/10/14 00:50:46;;;;;;;27.45;16.33;;;;;;;10.60;100.00;101403.16;1026453;28;20860;-90
2022/10/14 00:51:18;;;;;;;22.08;15.00;;;;;;;10.56;100.00;101406.44;1028242;28;20312;-90
2022/10/14 00:51:56;;;;;;;25.02;16.02;;;;;;;10.55;100.00;101405.63;1024043;28;20410;-90
2022/10/14 00:52:28;;;;;;;28.40;16.05;;;;;;;10.53;100.00;101403.16;1023545;28;20403;-91
2022/10/14 00:53:00;;;;;;;23.67;15.70;;;;;;;10.53;100.00;101397.03;1030322;28;20396;-90
2022/10/14 00:53:32;;;;;;;26.08;17.02;;;;;;;10.52;100.00;101404.19;1028059;28;20313;-91
2022/10/14 00:54:03;;;;;;;26.25;16.27;;;;;;;10.51;100.00;101399.06;1034033;28;20675;-89
2022/10/14 00:54:42;;;;;;;25.73;16.10;;;;;;;10.50;100.00;101397.44;1025007;28;20295;-90
2022/10/14 00:55:17;;;;;;;25.90;14.88;;;;;;;10.52;100.00;101409.50;1029368;28;20314;-90
2022/10/14 00:55:49;;;;;;;26.15;16.58;;;;;;;10.54;100.00;101406.66;1020653;28;20406;-91
2022/10/14 00:56:24;;;;;;;28.38;15.80;;;;;;;10.60;100.00;101405.84;1020811;29;20356;-90
2022/10/14 00:56:55;;;;;;;27.33;15.45;;;;;;;10.56;100.00;101407.25;1022626;29;20306;-91
2022/10/14 00:57:28;;;;;;;27.10;15.35;;;;;;;10.53;100.00;101408.50;1017394;29;20877;-91
2022/10/14 00:58:00;;;;;;;26.42;17.60;;;;;;;10.55;100.00;101407.47;1023116;28;20310;-91
2022/10/14 00:58:33;;;;;;;28.15;16.98;;;;;;;10.49;100.00;101411.75;1026348;28;20882;-91
2022/10/14 00:59:05;;;;;;;29.30;17.27;;;;;;;10.46;100.00;101406.84;1019426;29;20354;-91
2022/10/14 00:59:37;;;;;;;31.27;19.17;;;;;;;10.50;100.00;101408.06;1021197;28;20303;-90
2022/10/14 01:00:12;;;;;;;25.10;16.20;;;;;;;10.46;100.00;101406.84;1024645;28;20314;-91
2022/10/14 01:00:44;;;;;;;24.55;15.63;;;;;;;10.48;100.00;101412.78;1028728;28;20332;-90
2022/10/14 01:01:16;;;;;;;27.67;17.35;;;;;;;10.48;100.00;101416.28;1024734;28;20294;-90
2022/10/14 01:01:48;;;;;;;28.52;16.90;;;;;;;10.47;100.00;101408.47;1033458;28;20341;-90
2022/10/14 01:02:20;;;;;;;29.50;16.95;;;;;;;10.42;100.00;101406.44;1030107;28;20320;-91
2022/10/14 01:02:52;;;;;;;30.80;18.05;;;;;;;10.44;100.00;101409.72;1028858;28;20309;-91
2022/10/14 01:03:23;;;;;;;31.30;18.48;;;;;;;10.40;100.00;101408.44;1029260;28;20309;-90
2022/10/14 01:03:55;;;;;;;28.67;17.20;;;;;;;10.42;100.00;101406.44;1028317;28;20389;-90
2022/10/14 01:04:27;;;;;;;26.45;16.42;;;;;;;10.39;100.00;101411.31;1032716;28;20759;-90
2022/10/14 01:04:59;;;;;;;25.52;17.10;;;;;;;10.41;100.00;101414.63;1031154;28;20387;-90
2022/10/14 01:05:33;;;;;;;31.20;18.63;;;;;;;10.38;100.00;101404.34;1023389;29;20314;-90
2022/10/14 01:06:08;;;;;;;35.15;18.55;;;;;;;10.37;100.00;101402.69;1028652;28;20432;-90
2022/10/14 01:07:01;;;;;;;29.25;17.52;;;;;;;10.37;100.00;101413.34;1034021;28;20362;-90
2022/10/14 01:08:04;;;;;;;27.02;16.88;;;;;;;10.36;100.00;101406.38;1028092;28;21062;-90
2022/10/14 01:08:48;;;;;;;26.85;16.38;;;;;;;10.35;100.00;101405.56;1030584;28;20336;-90
2022/10/14 01:09:42;;;;;;;29.65;16.38;;;;;;;10.38;100.00;101404.34;1033414;28;20293;-91
2022/10/14 01:10:32;;;;;;;30.38;17.00;;;;;;;10.43;100.00;101413.41;1026510;28;20813;-91
2022/10/14 01:11:13;;;;;;;28.83;17.25;;;;;;;10.41;100.00;101411.97;1027692;28;20885;-89
2022/10/14 01:12:19;;;;;;;33.40;18.35;;;;;;;10.41;100.00;101404.78;1029391;28;20353;-90
2022/10/14 01:13:26;;;;;;;32.08;18.77;;;;;;;10.39;100.00;101409.47;1030900;28;20310;-90
2022/10/14 01:14:07;;;;;;;29.80;17.27;;;;;;;10.41;100.00;101407.44;1027279;28;20307;-91
2022/10/14 01:14:48;;;;;;;28.80;17.60;;;;;;;10.38;100.00;101404.34;1029525;28;20043;-91
2022/10/14 01:15:40;;;;;;;28.00;16.65;;;;;;;10.39;100.00;101408.66;1027417;28;20337;-90
2022/10/14 01:16:25;;;;;;;31.00;18.45;;;;;;;10.39;100.00;101405.97;1025727;28;20306;-90
2022/10/14 01:17:07;;;;;;;30.98;16.88;;;;;;;10.37;100.00;101402.69;1026205;28;20432;-90
2022/10/14 01:17:56;;;;;;;31.20;17.67;;;;;;;10.37;100.00;101403.53;1019562;29;20295;-90
2022/10/14 01:19:05;;;;;;;32.85;17.33;;;;;;;10.34;100.00;101397.78;1019855;29;20299;-90
2022/10/14 01:19:58;;;;;;;31.42;17.63;;;;;;;10.35;100.00;101402.91;1033947;28;20396;-90
2022/10/14 01:21:00;;;;;;;29.90;18.45;;;;;;;10.37;100.00;101400.03;1040293;28;20308;-90
2022/10/14 01:21:47;;;;;;;28.30;17.33;;;;;;;10.32;100.00;101399.81;1036324;28;20301;-92
2022/10/14 01:22:40;;;;;;;32.45;17.42;;;;;;;10.29;100.00;101401.06;1019808;29;20318;-90
2022/10/14 01:23:35;;;;;;;34.00;18.38;;;;;;;10.26;100.00;101400.63;1029343;28;20302;-90
2022/10/14 01:24:21;;;;;;;33.45;18.58;;;;;;;10.27;100.00;101396.94;1031528;28;20306;-90
2022/10/14 01:24:55;;;;;;;35.60;19.75;;;;;;;10.26;100.00;101396.13;1028633;28;20294;-90
2022/10/14 01:25:33;;;;;;;32.97;18.73;;;;;;;10.29;100.00;101400.22;1028171;28;20313;-91
2022/10/14 01:26:08;;;;;;;32.65;20.40;;;;;;;10.27;100.00;101389.78;1024478;28;20688;-91
2022/10/14 01:26:50;;;;;;;37.15;20.88;;;;;;;10.28;100.00;101386.09;1024305;28;20307;-90
2022/10/14 01:27:36;;;;;;;41.72;20.75;;;;;;;10.26;100.00;101392.66;1027885;28;20298;-91
2022/10/14 01:28:13;;;;;;;32.33;19.13;;;;;;;10.27;100.00;101391.63;1029786;28;20316;-93
2022/10/14 01:29:07;;;;;;;35.17;19.10;;;;;;;10.24;100.00;101392.03;1021236;29;20591;-91
2022/10/14 01:29:59;;;;;;;37.42;20.85;;;;;;;10.21;100.00;101388.75;1026432;28;20779;-91
2022/10/14 01:30:34;;;;;;;38.03;20.65;;;;;;;10.17;100.00;101387.47;1031308;28;20111;-91
2022/10/14 01:31:09;;;;;;;29.10;17.30;;;;;;;10.17;100.00;101390.16;1025496;28;20306;-90
2022/10/14 01:31:45;;;;;;;34.65;21.48;;;;;;;10.19;100.00;101388.09;1024832;28;20310;-90
2022/10/14 01:32:27;;;;;;;34.42;19.25;;;;;;;10.21;100.00;101380.75;1020435;29;20311;-91
2022/10/14 01:33:12;;;;;;;35.05;18.52;;;;;;;10.23;100.00;101385.88;1028578;28;20369;-91
2022/10/14 01:33:45;;;;;;;33.50;18.80;;;;;;;10.18;100.00;101389.13;1028017;28;20294;-90
2022/10/14 01:34:27;;;;;;;33.67;18.52;;;;;;;10.19;100.00;101384.63;1023984;28;20335;-90
2022/10/14 01:35:06;;;;;;;31.73;17.67;;;;;;;10.19;100.00;101382.78;1022138;29;20464;-91
2022/10/14 01:35:48;;;;;;;36.33;16.83;;;;;;;10.18;100.00;101383.78;1032114;28;20819;-91
2022/10/14 01:36:44;;;;;;;31.55;17.65;;;;;;;10.17;100.00;101376.84;1029039;28;20314;-91
2022/10/14 01:37:18;;;;;;;30.92;18.27;;;;;;;10.19;100.00;101384.63;1025405;28;20529;-91
2022/10/14 01:37:58;;;;;;;29.38;17.65;;;;;;;10.16;100.00;101383.19;1032156;28;20306;-89
2022/10/14 01:38:32;;;;;;;33.33;18.17;;;;;;;10.14;100.00;101379.91;1033171;28;20305;-90
2022/10/14 01:39:27;;;;;;;30.98;17.77;;;;;;;10.15;100.00;101370.88;1024063;28;20310;-91
2022/10/14 01:40:05;;;;;;;31.58;18.08;;;;;;;10.12;100.00;101379.25;1025981;28;20306;-90
2022/10/14 01:40:48;;;;;;;37.97;18.65;;;;;;;10.13;100.00;101375.56;1022031;29;20312;-91
2022/10/14 01:41:34;;;;;;;35.50;20.08;;;;;;;10.14;100.00;101379.91;1023681;28;20325;-91
2022/10/14 01:42:09;;;;;;;32.42;19.10;;;;;;;10.14;100.00;101381.75;1028903;28;20392;-90
2022/10/14 01:42:42;;;;;;;31.77;17.85;;;;;;;10.11;100.00;101382.94;1030793;28;20300;-89
2022/10/14 01:43:15;;;;;;;34.67;20.50;;;;;;;10.09;100.00;101379.66;1023847;28;20318;-89
2022/10/14 01:43:49;;;;;;;34.20;20.75;;;;;;;10.09;100.00;101384.16;1027937;28;20301;-91
2022/10/14 01:44:22;;;;;;;35.13;20.40;;;;;;;10.08;100.00;101374.53;1023439;29;20310;-90
2022/10/14 01:45:00;;;;;;;30.73;19.30;;;;;;;10.00;100.00;101375.53;1027679;28;20680;-90
2022/10/14 01:45:35;;;;;;;40.13;19.83;;;;;;;10.01;100.00;101376.34;1023781;28;20369;-90
2022/10/14 01:46:08;;;;;;;36.60;18.60;;;;;;;10.03;100.00;101380.47;1023739;28;20313;-90
2022/10/14 01:46:46;;;;;;;33.35;17.88;;;;;;;10.06;100.00;101381.91;1026057;28;20298;-91
2022/10/14 01:47:20;;;;;;;41.70;20.33;;;;;;;10.03;100.00;101380.47;1028591;28;20298;-90
2022/10/14 01:47:52;;;;;;;34.95;18.10;;;;;;;9.96;100.00;101382.28;1028961;28;20436;-90
2022/10/14 01:48:28;;;;;;;28.45;17.65;;;;;;;9.99;100.00;101379.22;1030039;28;20380;-90
2022/10/14 01:49:03;;;;;;;33.88;17.98;;;;;;;10.02;100.00;101376.16;1031293;28;20301;-91
2022/10/14 01:49:41;;;;;;;34.08;19.33;;;;;;;10.02;100.00;101380.66;1028344;28;20302;-91
2022/10/14 01:50:16;;;;;;;34.10;19.95;;;;;;;10.01;100.00;101382.50;1030426;28;20308;-90
2022/10/14 01:50:48;;;;;;;32.17;17.85;;;;;;;10.03;100.00;101383.13;1031219;28;20313;-91
2022/10/14 01:51:29;;;;;;;34.30;19.80;;;;;;;10.02;100.00;101381.47;1029085;28;20309;-90
2022/10/14 01:52:03;;;;;;;;;;;;;;;9.97;100.00;101381.25;1024360;28;20334;-90
2022/10/14 01:52:40;;;;;;;30.17;16.95;;;;;;;9.98;100.00;101382.91;1031367;28;19929;-91
2022/10/14 01:53:17;;;;;;;38.72;18.80;;;;;;;10.01;100.00;101381.69;1024043;28;20303;-91
2022/10/14 01:53:54;;;;;;;31.08;18.08;;;;;;;10.02;100.00;101378.81;1020115;29;20303;-90
2022/10/14 01:54:32;;;;;;;30.90;18.25;;;;;;;10.03;100.00;101377.78;1026355;28;20309;-90
2022/10/14 01:55:07;;;;;;;38.40;18.58;;;;;;;10.00;100.00;101378.19;1028053;28;20435;-90
2022/10/14 01:55:42;;;;;;;39.58;17.50;;;;;;;10.06;100.00;101380.06;1018422;29;20311;-89
2022/10/14 01:56:15;;;;;;;34.30;17.02;;;;;;;10.02;100.00;101368.16;1022422;28;20969;-90
2022/10/14 01:56:47;;;;;;;38.20;20.60;;;;;;;10.03;100.00;101369.81;1019589;29;20310;-90
2022/10/14 01:57:25;;;;;;;36.05;17.80;;;;;;;10.01;100.00;101371.84;1023796;29;20386;-91
2022/10/14 01:57:57;;;;;;;30.30;17.38;;;;;;;10.02;100.00;101368.16;1031342;28;20342;-90
2022/10/14 01:58:30;;;;;;;36.13;18.00;;;;;;;10.03;100.00;101375.13;1023919;28;20859;-90
2022/10/14 01:59:06;;;;;;;37.97;19.33;;;;;;;10.02;100.00;101368.16;1025992;28;20298;-90
2022/10/14 01:59:38;;;;;;;32.25;19.10;;;;;;;10.03;100.00;101371.66;1025003;28;20427;-90
2022/10/14 02:00:11;;;;;;;36.50;19.38;;;;;;;10.06;100.00;101368.59;1027027;28;20310;-90
2022/10/14 02:00:46;;;;;;;41.75;19.52;;;;;;;10.06;100.00;101369.41;1026725;28;20675;-91
2022/10/14 02:01:18;;;;;;;35.20;17.92;;;;;;;10.06;100.00;101368.59;1032191;28;20325;-91
2022/10/14 02:01:50;;;;;;;31.65;18.90;;;;;;;10.07;100.00;101364.91;1027403;28;20820;-90
2022/10/14 02:02:22;;;;;;;32.50;17.92;;;;;;;10.05;100.00;101362.44;1023048;28;20309;-90
2022/10/14 02:02:55;;;;;;;30.25;19.25;;;;;;;10.04;100.00;101360.81;1022771;29;20477;-91
2022/10/14 02:03:40;;;;;;;32.78;17.38;;;;;;;10.13;100.00;101367.56;1023900;29;20407;-91
2022/10/14 02:04:17;;;;;;;33.63;17.75;;;;;;;9.94;100.00;101370.19;1025276;28;20373;-92
2022/10/14 02:04:49;;;;;;;33.60;19.35;;;;;;;9.99;100.00;101362.44;1027693;28;20330;-90
2022/10/14 02:05:30;;;;;;;32.83;17.85;;;;;;;9.98;100.00;101356.28;1026092;28;20310;-91
2022/10/14 02:06:04;;;;;;;28.33;16.67;;;;;;;10.00;100.00;101364.06;1024693;28;20352;-89
2022/10/14 02:06:37;;;;;;;30.42;16.88;;;;;;;9.98;100.00;101358.13;1033912;28;20042;-90
2022/10/14 02:07:16;;;;;;;36.30;17.00;;;;;;;9.95;100.00;101366.50;1030313;28;20344;-91
2022/10/14 02:08:13;;;;;;;46.33;19.05;;;;;;;9.98;100.00;101366.09;1020212;29;20308;-90
2022/10/14 02:09:02;;;;;;;30.20;18.08;;;;;;;9.98;100.00;101366.94;1007418;28;20803;-90
2022/10/14 02:09:47;;;;;;;31.65;17.10;;;;;;;10.00;100.00;101362.22;1028355;28;20298;-90
2022/10/14 02:10:24;;;;;;;30.90;17.20;;;;;;;10.00;100.00;101358.75;1030301;28;20360;-91
2022/10/14 02:11:10;;;;;;;34.72;17.52;;;;;;;9.97;100.00;101365.28;1019063;28;20696;-90
2022/10/14 02:12:02;;;;;;;30.63;17.20;;;;;;;9.97;100.00;101359.16;1020246;29;20315;-91
2022/10/14 02:12:41;;;;;;;28.73;15.82;;;;;;;9.96;100.00;101358.31;1024294;29;20309;-90
2022/10/14 02:13:16;;;;;;;29.63;16.73;;;;;;;9.97;100.00;101359.97;1023909;28;20314;-90
2022/10/14 02:14:08;;;;;;;30.08;16.95;;;;;;;9.89;100.00;101362.81;1025806;28;20390;-90
2022/10/14 02:14:51;;;;;;;36.85;17.02;;;;;;;9.93;100.00;101356.06;1025105;28;20330;-90
2022/10/14 02:15:43;;;;;;;29.58;17.25;;;;;;;9.86;100.00;101357.84;1030592;28;20046;-90
2022/10/14 02:16:23;;;;;;;26.27;15.82;;;;;;;9.86;100.00;101363.19;1035696;28;20336;-90
2022/10/14 02:17:17;;;;;;;33.65;15.80;;;;;;;9.84;100.00;101367.88;1035432;28;20301;-91
2022/10/14 02:17:56;;;;;;;33.95;14.80;;;;;;;9.87;100.00;101363.00;1025616;28;20295;-90
2022/10/14 02:18:39;;;;;;;26.33;15.07;;;;;;;9.86;100.00;101364.03;1022259;29;20302;-90
2022/10/14 02:19:26;;;;;;;23.48;15.18;;;;;;;9.87;100.00;101367.50;1029577;28;20317;-90
2022/10/14 02:20:04;;;;;;;30.50;16.70;;;;;;;9.86;100.00;101371.16;1023533;28;20307;-91
2022/10/14 02:20:41;;;;;;;44.85;14.63;;;;;;;9.88;100.00;101364.66;1025274;28;20366;-91
2022/10/14 02:21:22;;;;;;;26.65;14.25;;;;;;;9.84;100.00;101358.06;1025122;28;20322;-91
2022/10/14 02:22:07;;;;;;;28.73;14.95;;;;;;;9.81;100.00;101366.44;1027754;28;20301;-90
2022/10/14 02:22:47;;;;;;;27.13;15.02;;;;;;;9.82;100.00;101361.94;1020851;29;20692;-90
2022/10/14 02:23:22;;;;;;;33.78;15.50;;;;;;;9.82;100.00;101369.91;1023737;28;20346;-90
2022/10/14 02:24:17;;;;;;;27.52;15.77;;;;;;;9.86;100.00;101352.53;1026682;28;20393;-90
2022/10/14 02:24:54;;;;;;;25.73;14.60;;;;;;;9.85;100.00;101362.34;1022709;29;20390;-90
2022/10/14 02:25:29;;;;;;;33.50;15.80;;;;;;;9.83;100.00;101361.75;1027738;28;20050;-90
2022/10/14 02:26:01;;;;;;;33.53;15.55;;;;;;;9.84;100.00;101367.88;1022095;29;20419;-90
2022/10/14 02:26:34;;;;;;;28.67;14.77;;;;;;;9.83;100.00;101359.06;1021414;28;20495;-90
2022/10/14 02:27:12;;;;;;;29.42;15.43;;;;;;;9.82;100.00;101357.44;1016218;29;20311;-90
2022/10/14 02:27:45;;;;;;;30.67;14.35;;;;;;;9.80;100.00;101348.00;1027975;28;20487;-90
2022/10/14 02:28:18;;;;;;;31.00;15.10;;;;;;;9.80;100.00;101363.97;1031467;28;20799;-90
2022/10/14 02:28:52;;;;;;;23.83;15.30;;;;;;;9.79;100.00;101354.34;1021824;29;20306;-90
2022/10/14 02:29:24;;;;;;;30.92;16.15;;;;;;;9.76;100.00;101358.25;1026821;28;20318;-90
2022/10/14 02:29:58;;;;;;;30.42;15.52;;;;;;;9.67;100.00;101355.94;1024192;28;20430;-89
2022/10/14 02:30:32;;;;;;;31.70;15.70;;;;;;;9.69;100.00;101356.56;1024825;28;20317;-89
2022/10/14 02:31:06;;;;;;;29.27;14.73;;;;;;;9.69;100.00;101356.56;1026282;28;20305;-90
2022/10/14 02:31:41;;;;;;;31.48;13.32;;;;;;;9.63;100.00;101363.50;1025787;28;20299;-90
2022/10/14 02:32:17;;;;;;;30.33;15.30;;;;;;;9.65;100.00;101361.47;1031892;28;20301;-90
2022/10/14 02:32:49;;;;;;;41.05;15.27;;;;;;;9.67;100.00;101356.78;1032167;28;20324;-90
2022/10/14 02:33:24;;;;;;;27.65;14.75;;;;;;;9.66;100.00;101357.78;1023370;28;20400;-90
2022/10/14 02:33:58;;;;;;;25.55;14.32;;;;;;;9.68;100.00;101362.91;1026496;28;20317;-90
2022/10/14 02:34:30;;;;;;;22.80;14.73;;;;;;;9.70;100.00;101356.38;1019873;29;20315;-90
2022/10/14 02:35:04;;;;;;;23.40;14.55;;;;;;;9.72;100.00;101356.19;1026235;28;20369;-90
2022/10/14 02:35:37;;;;;;;23.05;13.88;;;;;;;9.75;100.00;101355.78;1023754;28;20393;-90
2022/10/14 02:36:11;;;;;;;25.77;15.02;;;;;;;9.78;100.00;101363.34;1022160;28;20306;-90
2022/10/14 02:36:44;;;;;;;39.35;13.18;;;;;;;9.66;100.00;101351.66;1022523;29;20390;-91
2022/10/14 02:37:16;;;;;;;35.22;14.93;;;;;;;9.68;100.00;101355.75;1031539;28;20349;-90
2022/10/14 02:37:48;;;;;;;30.05;15.00;;;;;;;9.66;100.00;101363.13;1026693;28;20314;-90
2022/10/14 02:38:20;;;;;;;26.42;14.32;;;;;;;9.66;100.00;101356.97;1027365;28;20831;-89
2022/10/14 02:38:57;;;;;;;27.95;14.90;;;;;;;9.65;100.00;101358.81;1027577;28;20672;-90
2022/10/14 02:39:35;;;;;;;35.47;15.50;;;;;;;9.68;100.00;101361.06;1029621;28;20305;-90
2022/10/14 02:40:12;;;;;;;42.67;14.52;;;;;;;9.68;100.00;101360.25;1027674;28;20298;-90
2022/10/14 02:40:46;;;;;;;29.00;14.60;;;;;;;9.68;100.00;101362.91;1028004;28;20844;-90
2022/10/14 02:41:20;;;;;;;23.65;13.60;;;;;;;9.71;100.00;101365.19;1021227;29;20331;-91
2022/10/14 02:41:51;;;;;;;36.95;14.18;;;;;;;9.70;100.00;101358.22;1025170;28;20346;-90
2022/10/14 02:42:23;;;;;;;27.90;15.07;;;;;;;9.68;100.00;101357.59;1035162;28;20359;-90
2022/10/14 02:42:55;;;;;;;42.50;14.65;;;;;;;9.67;100.00;101355.94;1029584;28;20648;-90
2022/10/14 02:43:26;;;;;;;65.88;14.40;;;;;;;9.63;100.00;101354.72;1023740;28;20603;-90
2022/10/14 02:43:58;;;;;;;27.58;13.55;;;;;;;9.60;100.00;101364.72;1023997;28;20829;-89
2022/10/14 02:44:30;;;;;;;52.65;15.98;;;;;;;9.60;100.00;101359.41;1027950;28;20862;-90
2022/10/14 02:45:02;;;;;;;41.08;14.35;;;;;;;9.60;100.00;101354.09;1027696;28;20298;-90
2022/10/14 02:45:33;;;;;;;61.95;15.95;;;;;;;9.59;100.00;101357.75;1033109;28;20301;-90